sensor_id;sensor_type;location;lat;lon;timestamp;pressure;altitude;pressure_sealevel;temperature
40624;BMP280;26325;48.594;11.650;2023-03-14T00:02:02;95084.56;;;11.82
40624;BMP280;26325;48.594;11.650;2023-03-14T00:04:28;95075.84;;;11.78
40624;BMP280;26325;48.594;11.650;2023-03-14T00:06:53;95077.22;;;11.71
40624;BMP280;26325;48.594;11.650;2023-03-14T00:09:21;95092.97;;;11.74
40624;BMP280;26325;48.594;11.650;2023-03-14T00:11:49;95100.44;;;11.76
40624;BMP280;26325;48.594;11.650;2023-03-14T00:14:17;95104.22;;;11.83
40624;BMP280;26325;48.594;11.650;2023-03-14T00:16:45;95115.38;;;11.79
40624;BMP280;26325;48.594;11.650;2023-03-14T00:19:11;95121.63;;;11.96
40624;BMP280;26325;48.594;11.650;2023-03-14T00:21:39;95126.16;;;11.67
40624;BMP280;26325;48.594;11.650;2023-03-14T00:24:05;95118.13;;;11.69
40624;BMP280;26325;48.594;11.650;2023-03-14T00:26:31;95121.25;;;11.66
40624;BMP280;26325;48.594;11.650;2023-03-14T00:28:57;95145.81;;;11.68
40624;BMP280;26325;48.594;11.650;2023-03-14T00:31:24;95139.38;;;11.66
40624;BMP280;26325;48.594;11.650;2023-03-14T00:33:52;95151.13;;;11.77
40624;BMP280;26325;48.594;11.650;2023-03-14T00:36:18;95149.91;;;11.51
40624;BMP280;26325;48.594;11.650;2023-03-14T00:38:48;95153.84;;;11.67
40624;BMP280;26325;48.594;11.650;2023-03-14T00:41:20;95137.28;;;11.68
40624;BMP280;26325;48.594;11.650;2023-03-14T00:43:47;95136.09;;;11.61
40624;BMP280;26325;48.594;11.650;2023-03-14T00:46:13;95121.41;;;11.56
40624;BMP280;26325;48.594;11.650;2023-03-14T00:48:41;95131.44;;;11.40
40624;BMP280;26325;48.594;11.650;2023-03-14T00:51:12;95124.47;;;11.40
40624;BMP280;26325;48.594;11.650;2023-03-14T00:53:41;95127.88;;;11.36
40624;BMP280;26325;48.594;11.650;2023-03-14T00:56:10;95123.69;;;11.40
40624;BMP280;26325;48.594;11.650;2023-03-14T00:58:36;95117.97;;;11.43
40624;BMP280;26325;48.594;11.650;2023-03-14T01:01:16;95116.44;;;11.42
40624;BMP280;26325;48.594;11.650;2023-03-14T01:03:41;95115.59;;;11.46
40624;BMP280;26325;48.594;11.650;2023-03-14T01:06:13;95117.06;;;11.34
40624;BMP280;26325;48.594;11.650;2023-03-14T01:08:40;95131.28;;;11.31
40624;BMP280;26325;48.594;11.650;2023-03-14T01:11:24;95119.16;;;11.32
40624;BMP280;26325;48.594;11.650;2023-03-14T01:13:51;95136.00;;;11.24
40624;BMP280;26325;48.594;11.650;2023-03-14T01:16:18;95135.25;;;11.24
40624;BMP280;26325;48.594;11.650;2023-03-14T01:18:45;95139.81;;;11.32
40624;BMP280;26325;48.594;11.650;2023-03-14T01:21:19;95149.81;;;11.38
40624;BMP280;26325;48.594;11.650;2023-03-14T01:23:46;95146.72;;;11.36
40624;BMP280;26325;48.594;11.650;2023-03-14T01:26:16;95155.22;;;11.42
40624;BMP280;26325;48.594;11.650;2023-03-14T01:28:42;95152.34;;;11.43
40624;BMP280;26325;48.594;11.650;2023-03-14T01:31:10;95158.06;;;11.17
40624;BMP280;26325;48.594;11.650;2023-03-14T01:33:36;95153.28;;;11.06
40624;BMP280;26325;48.594;11.650;2023-03-14T01:36:03;95154.56;;;11.08
40624;BMP280;26325;48.594;11.650;2023-03-14T01:38:30;95158.72;;;11.04
40624;BMP280;26325;48.594;11.650;2023-03-14T01:40:56;95156.09;;;11.09
40624;BMP280;26325;48.594;11.650;2023-03-14T01:43:25;95158.81;;;10.95
40624;BMP280;26325;48.594;11.650;2023-03-14T01:48:42;95151.25;;;10.80
40624;BMP280;26325;48.594;11.650;2023-03-14T01:51:15;95155.56;;;10.84
40624;BMP280;26325;48.594;11.650;2023-03-14T01:53:42;95149.34;;;10.63
40624;BMP280;26325;48.594;11.650;2023-03-14T01:56:11;95140.78;;;10.67
40624;BMP280;26325;48.594;11.650;2023-03-14T01:58:41;95140.13;;;10.57
40624;BMP280;26325;48.594;11.650;2023-03-14T02:01:16;95119.47;;;10.57
40624;BMP280;26325;48.594;11.650;2023-03-14T02:03:55;95121.97;;;10.39
40624;BMP280;26325;48.594;11.650;2023-03-14T02:06:27;95122.19;;;10.42
40624;BMP280;26325;48.594;11.650;2023-03-14T02:08:54;95115.47;;;10.41
40624;BMP280;26325;48.594;11.650;2023-03-14T02:11:21;95120.09;;;10.44
40624;BMP280;26325;48.594;11.650;2023-03-14T02:13:47;95121.78;;;10.30
40624;BMP280;26325;48.594;11.650;2023-03-14T02:16:14;95111.47;;;10.30
40624;BMP280;26325;48.594;11.650;2023-03-14T02:18:40;95087.88;;;10.14
40624;BMP280;26325;48.594;11.650;2023-03-14T02:21:16;95057.03;;;10.04
40624;BMP280;26325;48.594;11.650;2023-03-14T02:27:11;95030.78;;;9.97
40624;BMP280;26325;48.594;11.650;2023-03-14T02:29:48;95027.88;;;10.04
40624;BMP280;26325;48.594;11.650;2023-03-14T02:32:16;95016.19;;;10.11
40624;BMP280;26325;48.594;11.650;2023-03-14T02:34:44;95007.59;;;9.92
40624;BMP280;26325;48.594;11.650;2023-03-14T02:37:12;94992.56;;;9.99
40624;BMP280;26325;48.594;11.650;2023-03-14T02:39:43;94975.94;;;10.15
40624;BMP280;26325;48.594;11.650;2023-03-14T02:42:11;94961.09;;;10.02
40624;BMP280;26325;48.594;11.650;2023-03-14T02:47:33;95003.22;;;10.21
40624;BMP280;26325;48.594;11.650;2023-03-14T02:50:12;95024.34;;;10.23
40624;BMP280;26325;48.594;11.650;2023-03-14T02:52:38;95022.81;;;10.22
40624;BMP280;26325;48.594;11.650;2023-03-14T02:55:04;95020.81;;;10.14
40624;BMP280;26325;48.594;11.650;2023-03-14T02:57:30;95012.84;;;10.10
40624;BMP280;26325;48.594;11.650;2023-03-14T02:59:59;95005.00;;;9.97
40624;BMP280;26325;48.594;11.650;2023-03-14T03:02:27;95008.41;;;10.16
40624;BMP280;26325;48.594;11.650;2023-03-14T03:04:53;95015.88;;;10.17
40624;BMP280;26325;48.594;11.650;2023-03-14T03:07:18;95007.44;;;10.35
40624;BMP280;26325;48.594;11.650;2023-03-14T03:09:45;95017.03;;;10.29
40624;BMP280;26325;48.594;11.650;2023-03-14T03:12:10;95005.00;;;9.97
40624;BMP280;26325;48.594;11.650;2023-03-14T03:14:36;95014.75;;;10.00
40624;BMP280;26325;48.594;11.650;2023-03-14T03:17:04;95008.47;;;10.34
40624;BMP280;26325;48.594;11.650;2023-03-14T03:19:31;95007.75;;;10.28
40624;BMP280;26325;48.594;11.650;2023-03-14T03:21:57;95012.31;;;10.13
40624;BMP280;26325;48.594;11.650;2023-03-14T03:24:24;95008.41;;;10.16
40624;BMP280;26325;48.594;11.650;2023-03-14T03:26:49;95010.00;;;10.12
40624;BMP280;26325;48.594;11.650;2023-03-14T03:29:15;95002.81;;;10.09
40624;BMP280;26325;48.594;11.650;2023-03-14T03:31:40;95006.41;;;10.08
40624;BMP280;26325;48.594;11.650;2023-03-14T03:34:06;95013.13;;;10.09
40624;BMP280;26325;48.594;11.650;2023-03-14T03:36:32;94999.38;;;9.90
40624;BMP280;26325;48.594;11.650;2023-03-14T03:39:02;94999.53;;;9.99
40624;BMP280;26325;48.594;11.650;2023-03-14T03:41:27;95006.41;;;10.08
40624;BMP280;26325;48.594;11.650;2023-03-14T03:43:53;94997.56;;;10.19
40624;BMP280;26325;48.594;11.650;2023-03-14T03:46:19;95000.13;;;10.19
40624;BMP280;26325;48.594;11.650;2023-03-14T03:48:45;94994.47;;;10.17
40624;BMP280;26325;48.594;11.650;2023-03-14T03:51:15;94984.81;;;10.27
40624;BMP280;26325;48.594;11.650;2023-03-14T03:53:42;94989.44;;;10.30
40624;BMP280;26325;48.594;11.650;2023-03-14T03:56:09;94987.13;;;10.28
40624;BMP280;26325;48.594;11.650;2023-03-14T03:58:35;94977.59;;;10.29
40624;BMP280;26325;48.594;11.650;2023-03-14T04:01:00;94982.34;;;10.17
40624;BMP280;26325;48.594;11.650;2023-03-14T04:03:26;94982.31;;;10.22
40624;BMP280;26325;48.594;11.650;2023-03-14T04:06:02;94978.53;;;10.15
40624;BMP280;26325;48.594;11.650;2023-03-14T04:08:28;94967.25;;;10.29
40624;BMP280;26325;48.594;11.650;2023-03-14T04:10:59;94965.03;;;10.23
40624;BMP280;26325;48.594;11.650;2023-03-14T04:13:26;94962.44;;;10.23
40624;BMP280;26325;48.594;11.650;2023-03-14T04:15:54;94960.34;;;10.25
40624;BMP280;26325;48.594;11.650;2023-03-14T04:18:23;94957.06;;;10.19
40624;BMP280;26325;48.594;11.650;2023-03-14T04:20:58;94972.19;;;10.26
40624;BMP280;26325;48.594;11.650;2023-03-14T04:23:24;94963.47;;;10.22
40624;BMP280;26325;48.594;11.650;2023-03-14T04:25:51;94970.94;;;10.23
40624;BMP280;26325;48.594;11.650;2023-03-14T04:28:17;94963.16;;;10.05
40624;BMP280;26325;48.594;11.650;2023-03-14T04:30:42;94956.47;;;9.99
40624;BMP280;26325;48.594;11.650;2023-03-14T04:33:08;94957.88;;;10.15
40624;BMP280;26325;48.594;11.650;2023-03-14T04:35:36;94966.94;;;10.12
40624;BMP280;26325;48.594;11.650;2023-03-14T04:38:01;94963.50;;;9.94
40624;BMP280;26325;48.594;11.650;2023-03-14T04:40:28;94952.94;;;9.95
40624;BMP280;26325;48.594;11.650;2023-03-14T04:42:55;94947.28;;;9.93
40624;BMP280;26325;48.594;11.650;2023-03-14T04:45:24;94958.19;;;10.08
40624;BMP280;26325;48.594;11.650;2023-03-14T04:47:49;94963.16;;;10.05
40624;BMP280;26325;48.594;11.650;2023-03-14T04:50:15;94958.44;;;10.12
40624;BMP280;26325;48.594;11.650;2023-03-14T04:52:42;94953.63;;;10.01
40624;BMP280;26325;48.594;11.650;2023-03-14T04:55:08;94949.41;;;10.09
40624;BMP280;26325;48.594;11.650;2023-03-14T04:57:34;94949.31;;;9.96
40624;BMP280;26325;48.594;11.650;2023-03-14T04:59:59;94953.91;;;9.99
40624;BMP280;26325;48.594;11.650;2023-03-14T05:02:25;94952.44;;;9.93
40624;BMP280;26325;48.594;11.650;2023-03-14T05:04:51;94939.47;;;9.98
40624;BMP280;26325;48.594;11.650;2023-03-14T05:07:16;94940.56;;;9.92
40624;BMP280;26325;48.594;11.650;2023-03-14T05:09:42;94937.28;;;9.87
40624;BMP280;26325;48.594;11.650;2023-03-14T05:12:07;94924.28;;;9.97
40624;BMP280;26325;48.594;11.650;2023-03-14T05:14:33;94927.19;;;9.90
40624;BMP280;26325;48.594;11.650;2023-03-14T05:16:59;94916.22;;;9.80
40624;BMP280;26325;48.594;11.650;2023-03-14T05:19:24;94907.06;;;9.92
40624;BMP280;26325;48.594;11.650;2023-03-14T05:21:52;94907.13;;;9.88
40624;BMP280;26325;48.594;11.650;2023-03-14T05:24:18;94903.81;;;9.82
40624;BMP280;26325;48.594;11.650;2023-03-14T05:26:43;94899.72;;;9.76
40624;BMP280;26325;48.594;11.650;2023-03-14T05:29:09;94890.44;;;9.80
40624;BMP280;26325;48.594;11.650;2023-03-14T05:31:34;94897.41;;;9.75
40624;BMP280;26325;48.594;11.650;2023-03-14T05:34:00;94901.03;;;9.74
40624;BMP280;26325;48.594;11.650;2023-03-14T05:36:25;94900.06;;;9.70
40624;BMP280;26325;48.594;11.650;2023-03-14T05:38:51;94895.09;;;9.73
40624;BMP280;26325;48.594;11.650;2023-03-14T05:41:16;94906.25;;;9.69
40624;BMP280;26325;48.594;11.650;2023-03-14T05:46:09;94893.28;;;9.79
40624;BMP280;26325;48.594;11.650;2023-03-14T05:48:35;94897.31;;;9.62
40624;BMP280;26325;48.594;11.650;2023-03-14T05:51:00;94884.03;;;9.73
40624;BMP280;26325;48.594;11.650;2023-03-14T05:53:26;94896.84;;;9.55
40624;BMP280;26325;48.594;11.650;2023-03-14T05:55:53;94895.88;;;9.74
40624;BMP280;26325;48.594;11.650;2023-03-14T05:58:19;94884.53;;;9.80
40624;BMP280;26325;48.594;11.650;2023-03-14T06:00:44;94899.28;;;9.70
40624;BMP280;26325;48.594;11.650;2023-03-14T06:03:10;94894.34;;;9.73
40624;BMP280;26325;48.594;11.650;2023-03-14T06:05:38;94905.66;;;9.77
40624;BMP280;26325;48.594;11.650;2023-03-14T06:08:04;94887.88;;;9.75
40624;BMP280;26325;48.594;11.650;2023-03-14T06:10:29;94890.78;;;9.69
40624;BMP280;26325;48.594;11.650;2023-03-14T06:12:57;94899.50;;;9.73
40624;BMP280;26325;48.594;11.650;2023-03-14T06:15:22;94895.59;;;9.75
40624;BMP280;26325;48.594;11.650;2023-03-14T06:17:48;94886.50;;;9.88
40624;BMP280;26325;48.594;11.650;2023-03-14T06:20:13;94896.06;;;9.82
40624;BMP280;26325;48.594;11.650;2023-03-14T06:22:40;94894.06;;;9.79
40624;BMP280;26325;48.594;11.650;2023-03-14T06:25:08;94892.19;;;9.85
40624;BMP280;26325;48.594;11.650;2023-03-14T06:27:34;94897.41;;;9.75
40624;BMP280;26325;48.594;11.650;2023-03-14T06:29:59;94894.25;;;9.83
40624;BMP280;26325;48.594;11.650;2023-03-14T06:32:25;94898.88;;;9.86
40624;BMP280;26325;48.594;11.650;2023-03-14T06:34:53;94895.78;;;9.89
40624;BMP280;26325;48.594;11.650;2023-03-14T06:37:21;94889.09;;;9.83
40624;BMP280;26325;48.594;11.650;2023-03-14T06:39:46;94893.66;;;9.90
40624;BMP280;26325;48.594;11.650;2023-03-14T06:42:12;94886.00;;;9.86
40624;BMP280;26325;48.594;11.650;2023-03-14T06:44:37;94878.81;;;9.83
40624;BMP280;26325;48.594;11.650;2023-03-14T06:47:03;94884.63;;;9.93
40624;BMP280;26325;48.594;11.650;2023-03-14T06:49:28;94881.78;;;9.94
40624;BMP280;26325;48.594;11.650;2023-03-14T06:51:55;94884.13;;;9.91
40624;BMP280;26325;48.594;11.650;2023-03-14T06:54:20;94894.50;;;9.86
40624;BMP280;26325;48.594;11.650;2023-03-14T06:56:47;94890.97;;;10.00
40624;BMP280;26325;48.594;11.650;2023-03-14T06:59:12;94879.09;;;10.04
40624;BMP280;26325;48.594;11.650;2023-03-14T07:01:38;94882.28;;;9.96
40624;BMP280;26325;48.594;11.650;2023-03-14T07:04:04;94887.31;;;10.06
40624;BMP280;26325;48.594;11.650;2023-03-14T07:06:29;94890.09;;;10.09
40624;BMP280;26325;48.594;11.650;2023-03-14T07:08:58;94890.63;;;10.07
40624;BMP280;26325;48.594;11.650;2023-03-14T07:11:24;94897.09;;;10.27
40624;BMP280;26325;48.594;11.650;2023-03-14T07:13:49;94898.00;;;10.18
40624;BMP280;26325;48.594;11.650;2023-03-14T07:16:15;94902.00;;;10.28
40624;BMP280;26325;48.594;11.650;2023-03-14T07:18:41;94907.16;;;10.28
40624;BMP280;26325;48.594;11.650;2023-03-14T07:21:07;94909.03;;;10.23
40624;BMP280;26325;48.594;11.650;2023-03-14T07:23:34;94921.72;;;10.20
40624;BMP280;26325;48.594;11.650;2023-03-14T07:26:00;94926.31;;;10.23
40624;BMP280;26325;48.594;11.650;2023-03-14T07:28:27;94930.09;;;10.30
40624;BMP280;26325;48.594;11.650;2023-03-14T07:30:54;94930.53;;;10.37
40624;BMP280;26325;48.594;11.650;2023-03-14T07:33:20;94923.69;;;10.27
40624;BMP280;26325;48.594;11.650;2023-03-14T07:35:49;94929.19;;;10.21
40624;BMP280;26325;48.594;11.650;2023-03-14T07:38:15;94934.53;;;10.25
40624;BMP280;26325;48.594;11.650;2023-03-14T07:40:41;94934.78;;;10.05
40624;BMP280;26325;48.594;11.650;2023-03-14T07:43:06;94941.81;;;10.23
40624;BMP280;26325;48.594;11.650;2023-03-14T07:45:32;94951.78;;;10.29
40624;BMP280;26325;48.594;11.650;2023-03-14T07:47:57;94933.50;;;10.26
40624;BMP280;26325;48.594;11.650;2023-03-14T07:50:26;94929.00;;;10.36
40624;BMP280;26325;48.594;11.650;2023-03-14T07:52:54;94928.19;;;10.40
40624;BMP280;26325;48.594;11.650;2023-03-14T07:55:23;94923.09;;;10.53
40624;BMP280;26325;48.594;11.650;2023-03-14T07:57:51;94912.22;;;10.56
40624;BMP280;26325;48.594;11.650;2023-03-14T08:00:16;94924.00;;;10.44
40624;BMP280;26325;48.594;11.650;2023-03-14T08:02:44;94919.09;;;10.43
40624;BMP280;26325;48.594;11.650;2023-03-14T08:05:10;94919.69;;;10.58
40624;BMP280;26325;48.594;11.650;2023-03-14T08:07:36;94921.16;;;10.64
40624;BMP280;26325;48.594;11.650;2023-03-14T08:10:01;94918.44;;;10.73
40624;BMP280;26325;48.594;11.650;2023-03-14T08:12:31;94914.06;;;10.74
40624;BMP280;26325;48.594;11.650;2023-03-14T08:14:57;94920.19;;;10.78
40624;BMP280;26325;48.594;11.650;2023-03-14T08:17:25;94924.53;;;10.82
40624;BMP280;26325;48.594;11.650;2023-03-14T08:19:50;94914.97;;;10.83
40624;BMP280;26325;48.594;11.650;2023-03-14T08:22:21;94923.53;;;10.96
40624;BMP280;26325;48.594;11.650;2023-03-14T08:24:46;94910.56;;;10.83
40624;BMP280;26325;48.594;11.650;2023-03-14T08:27:12;94900.63;;;11.08
40624;BMP280;26325;48.594;11.650;2023-03-14T08:29:39;94897.03;;;11.22
40624;BMP280;26325;48.594;11.650;2023-03-14T08:32:06;94894.06;;;11.15
40624;BMP280;26325;48.594;11.650;2023-03-14T08:34:33;94902.09;;;11.32
40624;BMP280;26325;48.594;11.650;2023-03-14T08:36:58;94905.00;;;11.43
40624;BMP280;26325;48.594;11.650;2023-03-14T08:39:24;94905.78;;;11.44
40624;BMP280;26325;48.594;11.650;2023-03-14T08:41:49;94915.84;;;11.59
40624;BMP280;26325;48.594;11.650;2023-03-14T08:44:15;94909.53;;;11.51
40624;BMP280;26325;48.594;11.650;2023-03-14T08:46:43;94914.31;;;11.58
40624;BMP280;26325;48.594;11.650;2023-03-14T08:49:08;94920.41;;;11.48
40624;BMP280;26325;48.594;11.650;2023-03-14T08:51:34;94925.72;;;11.57
40624;BMP280;26325;48.594;11.650;2023-03-14T08:53:59;94919.44;;;11.76
40624;BMP280;26325;48.594;11.650;2023-03-14T08:56:27;94913.00;;;11.73
40624;BMP280;26325;48.594;11.650;2023-03-14T08:58:53;94905.47;;;11.77
40624;BMP280;26325;48.594;11.650;2023-03-14T09:01:18;94911.28;;;11.69
40624;BMP280;26325;48.594;11.650;2023-03-14T09:03:49;94909.69;;;11.86
40624;BMP280;26325;48.594;11.650;2023-03-14T09:06:15;94904.78;;;11.84
40624;BMP280;26325;48.594;11.650;2023-03-14T09:08:43;94903.78;;;12.12
40624;BMP280;26325;48.594;11.650;2023-03-14T09:11:09;94903.75;;;11.99
40624;BMP280;26325;48.594;11.650;2023-03-14T09:13:37;94914.03;;;12.03
40624;BMP280;26325;48.594;11.650;2023-03-14T09:16:03;94918.50;;;11.85
40624;BMP280;26325;48.594;11.650;2023-03-14T09:18:31;94909.69;;;11.99
40624;BMP280;26325;48.594;11.650;2023-03-14T09:20:57;94904.34;;;12.09
40624;BMP280;26325;48.594;11.650;2023-03-14T09:23:22;94906.81;;;12.00
40624;BMP280;26325;48.594;11.650;2023-03-14T09:25:48;94905.66;;;12.06
40624;BMP280;26325;48.594;11.650;2023-03-14T09:28:16;94898.97;;;12.18
40624;BMP280;26325;48.594;11.650;2023-03-14T09:30:42;94903.47;;;12.26
40624;BMP280;26325;48.594;11.650;2023-03-14T09:33:08;94908.28;;;12.19
40624;BMP280;26325;48.594;11.650;2023-03-14T09:35:34;94898.19;;;12.31
40624;BMP280;26325;48.594;11.650;2023-03-14T09:37:59;94902.13;;;12.42
40624;BMP280;26325;48.594;11.650;2023-03-14T09:40:25;94898.88;;;12.37
40624;BMP280;26325;48.594;11.650;2023-03-14T09:42:56;94893.69;;;12.97
40624;BMP280;26325;48.594;11.650;2023-03-14T09:45:34;94884.88;;;13.41
40624;BMP280;26325;48.594;11.650;2023-03-14T09:48:03;94879.91;;;13.83
40624;BMP280;26325;48.594;11.650;2023-03-14T09:50:43;94889.25;;;13.84
40624;BMP280;26325;48.594;11.650;2023-03-14T09:53:21;94877.75;;;14.06
40624;BMP280;26325;48.594;11.650;2023-03-14T09:55:50;94881.69;;;14.42
40624;BMP280;26325;48.594;11.650;2023-03-14T09:58:20;94873.63;;;14.51
40624;BMP280;26325;48.594;11.650;2023-03-14T10:00:46;94874.25;;;14.82
40624;BMP280;26325;48.594;11.650;2023-03-14T10:03:34;94860.41;;;14.94
40624;BMP280;26325;48.594;11.650;2023-03-14T10:06:12;94868.03;;;15.07
40624;BMP280;26325;48.594;11.650;2023-03-14T10:08:43;94874.00;;;15.00
40624;BMP280;26325;48.594;11.650;2023-03-14T10:11:17;94862.19;;;14.52
40624;BMP280;26325;48.594;11.650;2023-03-14T10:16:30;94856.97;;;14.44
40624;BMP280;26325;48.594;11.650;2023-03-14T10:19:11;94866.13;;;14.42
40624;BMP280;26325;48.594;11.650;2023-03-14T10:21:43;94865.41;;;14.11
40624;BMP280;26325;48.594;11.650;2023-03-14T10:26:59;94860.38;;;14.15
40624;BMP280;26325;48.594;11.650;2023-03-14T10:29:33;94859.75;;;14.01
40624;BMP280;26325;48.594;11.650;2023-03-14T10:32:05;94868.19;;;13.85
40624;BMP280;26325;48.594;11.650;2023-03-14T10:34:38;94863.22;;;13.97
40624;BMP280;26325;48.594;11.650;2023-03-14T10:37:26;94855.97;;;14.15
40624;BMP280;26325;48.594;11.650;2023-03-14T10:39:55;94853.56;;;14.27
40624;BMP280;26325;48.594;11.650;2023-03-14T10:42:28;94861.56;;;14.01
40624;BMP280;26325;48.594;11.650;2023-03-14T10:45:03;94861.41;;;14.06
40624;BMP280;26325;48.594;11.650;2023-03-14T10:47:32;94850.03;;;14.23
40624;BMP280;26325;48.594;11.650;2023-03-14T10:50:22;94861.56;;;14.01
40624;BMP280;26325;48.594;11.650;2023-03-14T10:52:49;94868.69;;;13.95
40624;BMP280;26325;48.594;11.650;2023-03-14T10:55:16;94857.91;;;14.02
40624;BMP280;26325;48.594;11.650;2023-03-14T10:57:43;94851.38;;;14.12
40624;BMP280;26325;48.594;11.650;2023-03-14T11:00:27;94855.72;;;14.42
40624;BMP280;26325;48.594;11.650;2023-03-14T11:03:12;94847.19;;;14.49
40624;BMP280;26325;48.594;11.650;2023-03-14T11:05:51;94848.84;;;14.46
40624;BMP280;26325;48.594;11.650;2023-03-14T11:09:15;94841.81;;;14.46
40624;BMP280;26325;48.594;11.650;2023-03-14T11:11:30;94834.13;;;15.04
40624;BMP280;26325;48.594;11.650;2023-03-14T11:14:33;94833.47;;;15.07
40624;BMP280;26325;48.594;11.650;2023-03-14T11:19:53;94830.25;;;14.85
40624;BMP280;26325;48.594;11.650;2023-03-14T11:22:58;94823.03;;;14.41
40624;BMP280;26325;48.594;11.650;2023-03-14T11:28:39;94822.28;;;14.48
40624;BMP280;26325;48.594;11.650;2023-03-14T11:31:29;94829.47;;;14.51
40624;BMP280;26325;48.594;11.650;2023-03-14T11:37:03;94836.63;;;14.54
40624;BMP280;26325;48.594;11.650;2023-03-14T11:39:39;94825.50;;;14.54
40624;BMP280;26325;48.594;11.650;2023-03-14T11:42:14;94837.09;;;14.48
40624;BMP280;26325;48.594;11.650;2023-03-14T11:44:44;94812.34;;;14.34
40624;BMP280;26325;48.594;11.650;2023-03-14T11:47:21;94817.88;;;14.57
40624;BMP280;26325;48.594;11.650;2023-03-14T11:50:24;94805.19;;;14.64
40624;BMP280;26325;48.594;11.650;2023-03-14T11:55:44;94802.72;;;14.34
40624;BMP280;26325;48.594;11.650;2023-03-14T11:58:33;94809.75;;;14.42
40624;BMP280;26325;48.594;11.650;2023-03-14T12:01:07;94803.34;;;14.81
40624;BMP280;26325;48.594;11.650;2023-03-14T12:03:43;94801.09;;;14.96
40624;BMP280;26325;48.594;11.650;2023-03-14T12:06:28;94793.13;;;14.85
40624;BMP280;26325;48.594;11.650;2023-03-14T12:09:03;94799.84;;;14.77
40624;BMP280;26325;48.594;11.650;2023-03-14T12:14:33;94793.25;;;14.55
40624;BMP280;26325;48.594;11.650;2023-03-14T12:20:19;94796.28;;;14.24
40624;BMP280;26325;48.594;11.650;2023-03-14T12:23:03;94797.31;;;14.06
40624;BMP280;26325;48.594;11.650;2023-03-14T12:25:32;94792.28;;;14.10
40624;BMP280;26325;48.594;11.650;2023-03-14T12:28:22;94796.41;;;14.10
40624;BMP280;26325;48.594;11.650;2023-03-14T12:30:55;94789.66;;;13.93
40624;BMP280;26325;48.594;11.650;2023-03-14T12:33:26;94784.03;;;14.08
40624;BMP280;26325;48.594;11.650;2023-03-14T12:36:00;94789.03;;;13.96
40624;BMP280;26325;48.594;11.650;2023-03-14T12:43:33;94783.56;;;14.06
40624;BMP280;26325;48.594;11.650;2023-03-14T12:46:26;94782.22;;;14.16
40624;BMP280;26325;48.594;11.650;2023-03-14T12:51:41;94771.19;;;14.11
40624;BMP280;26325;48.594;11.650;2023-03-14T12:54:47;94785.72;;;14.20
40624;BMP280;26325;48.594;11.650;2023-03-14T12:57:40;94779.91;;;14.07
40624;BMP280;26325;48.594;11.650;2023-03-14T13:00:51;94786.94;;;14.14
40624;BMP280;26325;48.594;11.650;2023-03-14T13:03:23;94783.47;;;14.35
40624;BMP280;26325;48.594;11.650;2023-03-14T13:06:01;94787.44;;;14.41
40624;BMP280;26325;48.594;11.650;2023-03-14T13:08:48;94779.06;;;14.52
40624;BMP280;26325;48.594;11.650;2023-03-14T13:11:22;94781.66;;;14.69
40624;BMP280;26325;48.594;11.650;2023-03-14T13:13:58;94788.53;;;14.65
40624;BMP280;26325;48.594;11.650;2023-03-14T13:16:25;94783.94;;;14.46
40624;BMP280;26325;48.594;11.650;2023-03-14T13:19:01;94790.59;;;14.13
40624;BMP280;26325;48.594;11.650;2023-03-14T13:21:28;94797.28;;;13.98
40624;BMP280;26325;48.594;11.650;2023-03-14T13:24:20;94804.28;;;13.89
40624;BMP280;26325;48.594;11.650;2023-03-14T13:26:46;94810.56;;;13.96
40624;BMP280;26325;48.594;11.650;2023-03-14T13:29:27;94811.16;;;13.64
40624;BMP280;26325;48.594;11.650;2023-03-14T13:31:59;94822.03;;;13.44
40624;BMP280;26325;48.594;11.650;2023-03-14T13:34:32;94831.13;;;13.33
40624;BMP280;26325;48.594;11.650;2023-03-14T13:37:01;94836.72;;;13.27
40624;BMP280;26325;48.594;11.650;2023-03-14T13:39:28;94830.19;;;13.08
40624;BMP280;26325;48.594;11.650;2023-03-14T13:42:03;94840.22;;;13.01
40624;BMP280;26325;48.594;11.650;2023-03-14T13:44:39;94833.06;;;12.98
40624;BMP280;26325;48.594;11.650;2023-03-14T13:47:12;94837.63;;;13.01
40624;BMP280;26325;48.594;11.650;2023-03-14T13:49:41;94846.69;;;12.91
40624;BMP280;26325;48.594;11.650;2023-03-14T13:52:36;94855.34;;;12.86
40624;BMP280;26325;48.594;11.650;2023-03-14T13:55:05;94861.81;;;12.76
40624;BMP280;26325;48.594;11.650;2023-03-14T13:57:52;94909.91;;;12.29
40624;BMP280;26325;48.594;11.650;2023-03-14T14:00:26;94906.78;;;11.74
40624;BMP280;26325;48.594;11.650;2023-03-14T14:02:57;94918.88;;;11.47
40624;BMP280;26325;48.594;11.650;2023-03-14T14:05:28;94936.00;;;11.25
40624;BMP280;26325;48.594;11.650;2023-03-14T14:07:54;94944.97;;;10.97
40624;BMP280;26325;48.594;11.650;2023-03-14T14:10:20;94937.31;;;10.92
40624;BMP280;26325;48.594;11.650;2023-03-14T14:12:53;94941.09;;;10.58
40624;BMP280;26325;48.594;11.650;2023-03-14T14:15:26;94952.63;;;10.66
40624;BMP280;26325;48.594;11.650;2023-03-14T14:18:01;94956.50;;;10.45
40624;BMP280;26325;48.594;11.650;2023-03-14T14:20:37;94957.34;;;10.59
40624;BMP280;26325;48.594;11.650;2023-03-14T14:23:07;94962.50;;;10.59
40624;BMP280;26325;48.594;11.650;2023-03-14T14:25:40;94968.31;;;10.69
40624;BMP280;26325;48.594;11.650;2023-03-14T14:28:31;94961.72;;;10.81
40624;BMP280;26325;48.594;11.650;2023-03-14T14:31:18;94972.59;;;10.78
40624;BMP280;26325;48.594;11.650;2023-03-14T14:36:23;94995.91;;;10.50
40624;BMP280;26325;48.594;11.650;2023-03-14T14:38:59;95005.22;;;10.24
40624;BMP280;26325;48.594;11.650;2023-03-14T14:41:31;95011.84;;;10.07
40624;BMP280;26325;48.594;11.650;2023-03-14T14:43:58;95044.16;;;9.99
40624;BMP280;26325;48.594;11.650;2023-03-14T14:46:27;95024.28;;;9.72
40624;BMP280;26325;48.594;11.650;2023-03-14T14:49:03;95030.81;;;9.55
40624;BMP280;26325;48.594;11.650;2023-03-14T14:51:40;95048.06;;;9.59
40624;BMP280;26325;48.594;11.650;2023-03-14T14:57:23;95062.00;;;9.58
40624;BMP280;26325;48.594;11.650;2023-03-14T14:59:55;95060.44;;;9.57
40624;BMP280;26325;48.594;11.650;2023-03-14T15:02:40;95075.44;;;9.51
40624;BMP280;26325;48.594;11.650;2023-03-14T15:05:19;95073.75;;;9.32